San Diego, California
Traffic Map
Current Weather Conditions
San Diego, California
Clear
Clear
20°
Feels Like: 20°
Wind Chill: 20° Ceiling: Unl
Heat Index: 20° Visibility: 10mi
Dew Point: 15° Wind: 0mph
Humidity: 73% Direction: ° ()
Pressure: 29.87in Gusts: 0mph
Raw Report DataKSAN 300951Z 00000KT 10SM CLR 20/15 A2987 RMK AO2 SLP115 T02000150
Traffic Incident Summary
Active as of:
Severity:
Category:
InformationThere was an issue retrieving the traffic information for this location. Please try a different location or try again shortly.
Advertisements
Track Severe Weather on mobile